createdAt,value
2023-01-13T00:01:36.609Z,1.42
2023-01-13T00:06:42.664Z,1.37
2023-01-13T00:11:48.871Z,1.45
2023-01-13T00:16:54.963Z,1.41
2023-01-13T00:22:01.208Z,1.62
2023-01-13T00:27:07.367Z,1.43
2023-01-13T00:32:13.857Z,1.80
2023-01-13T00:37:20.037Z,1.86
2023-01-13T00:42:26.224Z,1.88
2023-01-13T00:47:32.399Z,1.91
2023-01-13T00:52:40.070Z,2.09
2023-01-13T00:57:44.230Z,2.04
2023-01-13T01:02:50.447Z,2.22
2023-01-13T01:07:56.615Z,2.19
2023-01-13T01:13:02.823Z,2.35
2023-01-13T01:18:08.962Z,2.25
2023-01-13T01:23:15.119Z,1.94
2023-01-13T01:28:21.199Z,2.02
2023-01-13T01:33:27.434Z,1.96
2023-01-13T01:38:33.619Z,2.15
2023-01-13T01:43:39.938Z,3.28
2023-01-13T01:48:46.306Z,3.57
2023-01-13T01:53:52.518Z,2.94
2023-01-13T01:58:58.643Z,3.59
2023-01-13T02:04:04.940Z,3.88
2023-01-13T02:09:11.018Z,3.54
2023-01-13T02:14:17.335Z,3.55
2023-01-13T02:19:23.441Z,3.68
2023-01-13T02:24:29.667Z,3.87
2023-01-13T02:29:35.803Z,2.96
2023-01-13T02:34:42.140Z,3.18
2023-01-13T02:39:48.210Z,3.56
2023-01-13T02:44:54.602Z,2.83
2023-01-13T02:50:00.711Z,3.07
2023-01-13T02:55:06.870Z,2.94
2023-01-13T03:00:12.981Z,2.75
2023-01-13T03:05:19.210Z,3.00
2023-01-13T03:10:25.305Z,3.24
2023-01-13T03:15:31.663Z,2.72
2023-01-13T03:20:38.161Z,2.92
2023-01-13T03:25:45.157Z,3.17
2023-01-13T03:30:51.396Z,4.00
2023-01-13T03:36:40.466Z,3.21
2023-01-13T03:41:46.571Z,3.27
2023-01-13T03:46:52.804Z,3.44
2023-01-13T03:51:58.877Z,3.42
2023-01-13T03:57:05.160Z,3.28
2023-01-13T04:02:11.583Z,3.30
2023-01-13T04:07:17.557Z,2.94
2023-01-13T04:12:23.674Z,3.44
2023-01-13T04:17:29.951Z,3.40
2023-01-13T04:22:36.260Z,3.45
2023-01-13T04:27:42.437Z,3.78
2023-01-13T04:32:48.514Z,3.67
2023-01-13T04:37:54.725Z,3.77
2023-01-13T04:43:00.877Z,3.95
2023-01-13T04:48:07.522Z,3.37
2023-01-13T04:53:13.625Z,3.46
2023-01-13T04:58:19.822Z,3.30
2023-01-13T05:03:25.991Z,3.33
2023-01-13T05:08:32.213Z,3.31
2023-01-13T05:13:38.312Z,3.49
2023-01-13T05:18:44.541Z,3.58
2023-01-13T05:23:50.635Z,3.74
2023-01-13T05:28:56.955Z,3.40
2023-01-13T05:34:03.202Z,3.67
2023-01-13T05:39:12.653Z,3.50
2023-01-13T05:44:18.729Z,3.77
2023-01-13T05:49:24.937Z,3.54
2023-01-13T05:54:31.129Z,3.42
2023-01-13T05:59:37.434Z,3.72
2023-01-13T06:04:43.589Z,3.84
2023-01-13T06:09:49.818Z,3.69
2023-01-13T06:14:55.897Z,4.07
2023-01-13T06:20:02.037Z,3.46
2023-01-13T06:25:08.105Z,3.50
2023-01-13T06:30:14.264Z,3.40
2023-01-13T06:35:20.449Z,3.74
2023-01-13T06:40:26.671Z,3.54
2023-01-13T06:45:32.748Z,3.36
2023-01-13T06:50:39.076Z,3.53
2023-01-13T06:55:45.180Z,3.63
2023-01-13T07:00:51.770Z,3.57
2023-01-13T07:05:57.015Z,3.23
2023-01-13T07:11:03.193Z,3.32
2023-01-13T07:16:09.342Z,3.51
2023-01-13T07:21:15.418Z,2.57
2023-01-13T07:26:21.497Z,2.67
2023-01-13T07:31:27.674Z,2.63
2023-01-13T07:36:33.702Z,2.72
2023-01-13T07:41:39.868Z,2.72
2023-01-13T07:46:46.039Z,2.82
2023-01-13T07:51:52.216Z,2.66
2023-01-13T07:56:58.300Z,2.66
2023-01-13T08:02:04.648Z,2.46
2023-01-13T08:07:10.496Z,2.83
2023-01-13T08:12:16.782Z,2.42
2023-01-13T08:17:22.843Z,2.41
2023-01-13T08:22:29.153Z,2.64
2023-01-13T08:27:35.244Z,2.21
2023-01-13T08:32:41.367Z,2.33
2023-01-13T08:37:47.486Z,2.49
2023-01-13T08:42:53.628Z,1.89
2023-01-13T08:47:59.695Z,2.14
2023-01-13T08:53:05.926Z,2.12
2023-01-13T08:58:15.834Z,2.39
2023-01-13T09:03:17.826Z,2.25
2023-01-13T09:08:23.947Z,2.04
2023-01-13T09:13:30.143Z,2.50
2023-01-13T09:18:36.215Z,2.42
2023-01-13T09:23:42.564Z,2.43
2023-01-13T09:28:48.658Z,2.43
2023-01-13T09:33:54.920Z,2.34
2023-01-13T09:39:01.018Z,2.08
2023-01-13T09:44:07.283Z,2.02
2023-01-13T09:49:13.383Z,2.09
2023-01-13T09:54:19.624Z,1.95
2023-01-13T09:59:25.762Z,1.79
2023-01-13T10:04:32.017Z,1.77
2023-01-13T10:09:38.035Z,2.01
2023-01-13T10:14:44.250Z,2.69
2023-01-13T10:19:50.333Z,2.29
2023-01-13T10:24:56.582Z,2.26
2023-01-13T10:30:02.691Z,2.21
2023-01-13T10:35:08.919Z,3.05
2023-01-13T10:40:14.993Z,2.41
2023-01-13T10:45:21.203Z,2.32
2023-01-13T10:50:27.293Z,2.51
2023-01-13T10:55:33.611Z,2.15
2023-01-13T11:00:39.690Z,2.66
2023-01-13T11:05:45.866Z,2.22
2023-01-13T11:10:51.945Z,2.81
2023-01-13T11:15:58.266Z,2.33
2023-01-13T11:21:04.365Z,2.60
2023-01-13T11:26:10.536Z,2.42
2023-01-13T11:31:16.636Z,2.43
2023-01-13T11:36:22.782Z,2.33
2023-01-13T11:41:28.873Z,2.09
2023-01-13T11:46:35.191Z,1.98
2023-01-13T11:51:41.201Z,1.90
2023-01-13T11:56:47.399Z,2.18
2023-01-13T12:01:53.480Z,2.19
2023-01-13T12:06:59.804Z,2.00
2023-01-13T12:12:05.891Z,2.29
2023-01-13T12:17:12.328Z,2.38
2023-01-13T12:22:18.425Z,2.67
2023-01-13T12:27:24.603Z,2.25
2023-01-13T12:32:30.667Z,2.01
2023-01-13T12:37:36.899Z,2.24
2023-01-13T12:42:43.062Z,2.33
2023-01-13T12:47:49.203Z,2.22
2023-01-13T12:52:55.283Z,1.99
2023-01-13T12:58:01.536Z,2.74
2023-01-13T13:03:07.662Z,2.49
2023-01-13T13:08:13.912Z,2.38
2023-01-13T13:13:19.967Z,2.40
2023-01-13T13:18:26.127Z,2.53
2023-01-13T13:23:32.310Z,2.43
2023-01-13T13:28:38.521Z,2.27
2023-01-13T13:33:44.591Z,2.45
2023-01-13T13:38:50.874Z,2.44
2023-01-13T13:43:57.009Z,2.61
2023-01-13T13:49:03.234Z,2.56
2023-01-13T13:54:10.447Z,2.42
2023-01-13T13:59:16.617Z,2.75
2023-01-13T14:04:22.701Z,1.74
2023-01-13T14:09:28.835Z,2.15
2023-01-13T14:14:34.975Z,2.39
2023-01-13T14:19:41.192Z,2.74
2023-01-13T14:24:47.332Z,2.39
2023-01-13T14:29:53.499Z,2.01
2023-01-13T14:34:59.581Z,1.81
2023-01-13T14:40:05.909Z,1.65
2023-01-13T14:45:12.030Z,2.03
2023-01-13T14:50:18.337Z,2.05
2023-01-13T14:55:24.517Z,2.00
2023-01-13T15:00:30.664Z,2.44
2023-01-13T15:05:36.813Z,2.07
2023-01-13T15:10:43.089Z,2.07
2023-01-13T15:15:49.194Z,2.23
2023-01-13T15:20:55.534Z,1.97
2023-01-13T15:26:02.002Z,2.32
2023-01-13T15:31:08.353Z,2.02
2023-01-13T15:36:14.783Z,2.21
2023-01-13T15:41:21.083Z,2.22
2023-01-13T15:46:27.180Z,1.95
2023-01-13T15:51:33.382Z,1.57
2023-01-13T15:56:39.550Z,2.03
2023-01-13T16:01:45.888Z,1.27
2023-01-13T16:06:51.966Z,1.27
2023-01-13T16:11:58.202Z,1.11
2023-01-13T16:17:04.309Z,1.22
2023-01-13T16:22:10.879Z,1.18
2023-01-13T16:27:17.012Z,1.13
2023-01-13T16:32:23.349Z,1.41
2023-01-13T16:37:29.467Z,1.25
2023-01-13T16:42:37.738Z,1.19
2023-01-13T16:47:43.965Z,1.35
2023-01-13T16:52:50.336Z,1.55
2023-01-13T16:57:56.515Z,1.93
2023-01-13T17:03:02.850Z,1.88
2023-01-13T17:08:08.985Z,1.60
2023-01-13T17:13:16.957Z,1.83
2023-01-13T17:18:20.831Z,1.42
2023-01-13T17:23:27.008Z,1.52
2023-01-13T17:28:33.161Z,1.36
2023-01-13T17:33:39.305Z,1.33
2023-01-13T17:38:45.584Z,1.23
2023-01-13T17:43:51.819Z,1.24
2023-01-13T17:48:57.927Z,1.25
2023-01-13T17:54:04.133Z,1.31
2023-01-13T17:59:10.703Z,1.47
2023-01-13T18:04:16.746Z,1.68
2023-01-13T18:09:23.188Z,1.59
2023-01-13T18:14:29.680Z,1.72
2023-01-13T18:19:35.844Z,1.51
2023-01-13T18:24:42.066Z,1.82
2023-01-13T18:29:48.241Z,1.92
2023-01-13T18:35:04.978Z,1.76
2023-01-13T18:40:00.300Z,2.13
2023-01-13T18:45:06.545Z,1.58
2023-01-13T18:50:12.609Z,1.89
2023-01-13T18:55:18.813Z,1.72
2023-01-13T19:00:25.042Z,2.59
2023-01-13T19:05:31.222Z,8.82
2023-01-13T19:10:37.405Z,4.30
2023-01-13T19:15:43.697Z,2.92
2023-01-13T19:20:49.845Z,2.20
2023-01-13T19:25:56.151Z,2.47
2023-01-13T19:31:02.342Z,1.77
2023-01-13T19:36:08.080Z,2.14
2023-01-13T19:41:14.266Z,1.46
2023-01-13T19:46:20.566Z,1.46
2023-01-13T19:51:26.762Z,2.01
2023-01-13T19:56:33.119Z,2.27
2023-01-13T20:01:39.327Z,2.47
2023-01-13T20:06:45.602Z,2.79
2023-01-13T20:11:51.718Z,2.36
2023-01-13T20:16:58.041Z,2.03
2023-01-13T20:22:04.194Z,1.50
2023-01-13T20:27:11.844Z,1.33
2023-01-13T20:32:18.347Z,1.35
2023-01-13T20:37:24.630Z,1.60
2023-01-13T20:42:30.709Z,1.89
2023-01-13T20:47:36.857Z,1.85
2023-01-13T20:52:42.981Z,2.32
2023-01-13T20:57:49.257Z,2.46
2023-01-13T21:02:55.392Z,2.25
2023-01-13T21:08:01.641Z,2.07
2023-01-13T21:13:07.758Z,2.17
2023-01-13T21:18:13.975Z,2.37
2023-01-13T21:23:20.162Z,1.87
2023-01-13T21:28:26.321Z,2.26
2023-01-13T21:33:32.430Z,1.94
2023-01-13T21:38:38.676Z,2.05
2023-01-13T21:43:44.998Z,1.97
2023-01-13T21:48:51.241Z,1.61
2023-01-13T21:53:57.466Z,1.74
2023-01-13T21:59:03.709Z,1.75
2023-01-13T22:04:09.902Z,1.45
2023-01-13T22:09:16.087Z,1.67
2023-01-13T22:14:22.355Z,1.56
2023-01-13T22:19:28.537Z,1.71
2023-01-13T22:24:35.032Z,1.74
2023-01-13T22:29:41.204Z,1.60
2023-01-13T22:34:47.367Z,1.44
2023-01-13T22:39:53.640Z,1.46
2023-01-13T22:44:59.750Z,1.81
2023-01-13T22:50:05.923Z,1.55
2023-01-13T22:55:12.079Z,1.65
2023-01-13T23:00:18.313Z,1.59
2023-01-13T23:05:24.447Z,1.49
2023-01-13T23:10:30.706Z,1.46
2023-01-13T23:15:36.825Z,1.38
2023-01-13T23:20:43.120Z,1.29
2023-01-13T23:25:49.264Z,1.27
2023-01-13T23:30:55.444Z,1.83
2023-01-13T23:36:01.555Z,1.28
2023-01-13T23:41:07.746Z,1.49
2023-01-13T23:46:13.976Z,1.40
2023-01-13T23:51:20.050Z,1.50
2023-01-13T23:56:26.152Z,1.51
